createdAt,value
2018-05-11T00:00:28.805Z,15.6
2018-05-11T00:01:29.976Z,15.7
2018-05-11T00:02:31.183Z,15.6
2018-05-11T00:03:32.331Z,15.6
2018-05-11T00:04:33.471Z,15.8
2018-05-11T00:05:34.610Z,15.5
2018-05-11T00:06:35.750Z,15.7
2018-05-11T00:07:36.997Z,15.6
2018-05-11T00:08:38.110Z,15.6
2018-05-11T00:09:39.295Z,15.7
2018-05-11T00:10:40.453Z,15.6
2018-05-11T00:11:41.633Z,15.7
2018-05-11T00:12:42.798Z,15.8
2018-05-11T00:13:43.934Z,15.7
2018-05-11T00:14:45.070Z,15.7
2018-05-11T00:15:46.206Z,15.6
2018-05-11T00:16:47.368Z,15.6
2018-05-11T00:17:48.544Z,15.8
2018-05-11T00:18:49.707Z,15.6
2018-05-11T00:19:50.843Z,15.6
2018-05-11T00:20:52.020Z,15.5
2018-05-11T00:21:53.196Z,15.5
2018-05-11T00:22:54.403Z,15.6
2018-05-11T00:23:55.556Z,15.8
2018-05-11T00:24:56.782Z,15.7
2018-05-11T00:25:57.909Z,15.9
2018-05-11T00:27:03.387Z,15.9
2018-05-11T00:28:05.004Z,15.7
2018-05-11T00:29:06.578Z,15.6
2018-05-11T00:30:07.752Z,15.6
2018-05-11T00:31:08.891Z,15.6
2018-05-11T00:32:11.384Z,15.6
2018-05-11T00:33:12.592Z,15.5
2018-05-11T00:34:13.723Z,15.6
2018-05-11T00:35:15.030Z,15.5
2018-05-11T00:36:16.184Z,15.7
2018-05-11T00:37:17.366Z,15.6
2018-05-11T00:38:18.598Z,15.8
2018-05-11T00:39:19.740Z,15.8
2018-05-11T00:40:20.878Z,15.6
2018-05-11T00:41:22.023Z,15.8
2018-05-11T00:42:23.148Z,15.6
2018-05-11T00:43:24.315Z,15.4
2018-05-11T00:44:25.435Z,15.4
2018-05-11T00:45:26.585Z,15.5
2018-05-11T00:46:27.730Z,15.5
2018-05-11T00:47:28.907Z,15.5
2018-05-11T00:48:30.085Z,15.5
2018-05-11T00:49:31.249Z,15.5
2018-05-11T00:50:32.401Z,15.5
2018-05-11T00:51:33.538Z,15.4
2018-05-11T00:52:34.711Z,15.4
2018-05-11T00:53:36.008Z,15.4
2018-05-11T00:54:37.140Z,15.4
2018-05-11T00:55:38.286Z,15.4
2018-05-11T00:56:39.414Z,15.4
2018-05-11T00:57:40.571Z,15.4
2018-05-11T00:58:41.721Z,15.4
2018-05-11T00:59:42.842Z,15.4
2018-05-11T01:00:43.986Z,15.4
2018-05-11T01:01:45.108Z,15.3
2018-05-11T01:02:46.515Z,15.3
2018-05-11T01:03:47.777Z,15.3
2018-05-11T01:04:48.918Z,15.3
2018-05-11T01:05:50.061Z,15.3
2018-05-11T01:06:51.473Z,15.4
2018-05-11T01:07:52.798Z,15.3
2018-05-11T01:08:54.001Z,15.3
2018-05-11T01:09:55.134Z,15.4
2018-05-11T01:10:56.265Z,15.4
2018-05-11T01:11:57.442Z,15.3
2018-05-11T01:12:59.562Z,15.2
2018-05-11T01:14:04.418Z,15.3
2018-05-11T01:15:05.542Z,15.3
2018-05-11T01:16:06.679Z,15.3
2018-05-11T01:17:07.818Z,15.3
2018-05-11T01:18:08.948Z,15.4
2018-05-11T01:19:10.118Z,15.1
2018-05-11T01:20:11.483Z,15.2
2018-05-11T01:21:12.610Z,15.2
2018-05-11T01:22:13.863Z,15.1
2018-05-11T01:23:14.997Z,15.2
2018-05-11T01:24:16.357Z,15
2018-05-11T01:25:17.490Z,15.1
2018-05-11T01:26:18.710Z,15.1
2018-05-11T01:27:22.055Z,15.1
2018-05-11T01:28:25.578Z,15.1
2018-05-11T01:29:26.734Z,15.2
2018-05-11T01:30:27.893Z,15.2
2018-05-11T01:31:29.029Z,15.2
2018-05-11T01:32:30.656Z,15.1
2018-05-11T01:33:31.782Z,15
2018-05-11T01:34:32.989Z,15.1
2018-05-11T01:35:34.144Z,15.1
2018-05-11T01:36:35.388Z,15.1
2018-05-11T01:37:36.619Z,15
2018-05-11T01:38:37.788Z,14.9
2018-05-11T01:39:38.991Z,14.9
2018-05-11T01:40:40.153Z,15
2018-05-11T01:41:41.286Z,14.9
2018-05-11T01:42:42.435Z,14.8
2018-05-11T01:43:43.579Z,15
2018-05-11T01:44:44.749Z,14.9
2018-05-11T01:45:45.893Z,14.9
2018-05-11T01:46:47.024Z,14.9
2018-05-11T01:47:48.134Z,15
2018-05-11T01:48:49.361Z,14.9
2018-05-11T01:49:50.508Z,14.9
2018-05-11T01:50:51.632Z,14.7
2018-05-11T01:51:52.770Z,14.7
2018-05-11T01:52:57.476Z,14.6
2018-05-11T01:53:58.619Z,14.7
2018-05-11T01:54:59.994Z,14.8
2018-05-11T01:56:01.081Z,14.8
2018-05-11T01:57:02.234Z,14.8
2018-05-11T01:58:03.369Z,14.7
2018-05-11T01:59:04.541Z,14.6
2018-05-11T02:00:05.725Z,14.6
2018-05-11T02:01:06.866Z,14.6
2018-05-11T02:02:08.211Z,14.7
2018-05-11T02:03:09.352Z,14.6
2018-05-11T02:04:10.473Z,14.6
2018-05-11T02:05:11.678Z,14.7
2018-05-11T02:06:12.842Z,14.7
2018-05-11T02:07:13.965Z,14.7
2018-05-11T02:08:17.498Z,14.6
2018-05-11T02:09:18.759Z,14.6
2018-05-11T02:10:20.007Z,14.6
2018-05-11T02:11:22.000Z,14.6
2018-05-11T02:12:23.174Z,14.6
2018-05-11T02:13:24.300Z,14.7
2018-05-11T02:14:25.460Z,14.6
2018-05-11T02:15:26.622Z,14.6
2018-05-11T02:16:27.785Z,14.5
2018-05-11T02:17:28.921Z,14.6
2018-05-11T02:18:30.064Z,14.6
2018-05-11T02:19:31.252Z,14.5
2018-05-11T02:20:32.414Z,14.6
2018-05-11T02:21:33.561Z,14.5
2018-05-11T02:22:34.690Z,14.5
2018-05-11T02:23:35.830Z,14.5
2018-05-11T02:24:36.962Z,14.5
2018-05-11T02:25:38.371Z,14.4
2018-05-11T02:26:39.541Z,14.5
2018-05-11T02:27:40.682Z,14.6
2018-05-11T02:28:41.826Z,14.5
2018-05-11T02:29:42.954Z,14.5
2018-05-11T02:30:44.132Z,14.5
2018-05-11T02:31:45.273Z,14.4
2018-05-11T02:32:46.399Z,14.4
2018-05-11T02:33:47.554Z,14.4
2018-05-11T02:34:48.696Z,14.3
2018-05-11T02:35:49.904Z,14.4
2018-05-11T02:36:51.027Z,14.4
2018-05-11T02:37:52.181Z,14.3
2018-05-11T02:38:53.347Z,14.3
2018-05-11T02:39:54.483Z,14.3
2018-05-11T02:40:55.700Z,14.2
2018-05-11T02:41:56.853Z,14.2
2018-05-11T02:42:58.039Z,14.2
2018-05-11T02:43:59.191Z,14.2
2018-05-11T02:45:00.358Z,14.2
2018-05-11T02:46:01.636Z,14.2
2018-05-11T02:47:02.794Z,14.3
2018-05-11T02:48:03.939Z,14.2
2018-05-11T02:49:05.080Z,14
2018-05-11T02:50:06.244Z,14.1
2018-05-11T02:51:07.520Z,14.1
2018-05-11T02:52:08.724Z,14.1
2018-05-11T02:53:09.862Z,14.1
2018-05-11T02:54:11.001Z,14.1
2018-05-11T02:55:12.144Z,13.9
2018-05-11T02:56:13.597Z,14
2018-05-11T02:57:14.793Z,14
2018-05-11T02:58:15.952Z,13.9
2018-05-11T02:59:17.099Z,13.9
2018-05-11T03:00:18.258Z,13.9
2018-05-11T03:01:19.429Z,13.9
2018-05-11T03:02:20.562Z,14
2018-05-11T03:03:21.719Z,13.9
2018-05-11T03:04:22.842Z,14
2018-05-11T03:05:23.991Z,13.9
2018-05-11T03:06:25.189Z,13.9
2018-05-11T03:07:26.355Z,14
2018-05-11T03:08:27.485Z,14
2018-05-11T03:09:28.623Z,13.9
2018-05-11T03:10:29.790Z,14
2018-05-11T03:11:30.969Z,14
2018-05-11T03:12:32.131Z,14.1
2018-05-11T03:13:33.302Z,14.2
2018-05-11T03:14:34.432Z,14
2018-05-11T03:15:35.578Z,14.2
2018-05-11T03:16:36.735Z,14.2
2018-05-11T03:17:37.924Z,14.1
2018-05-11T03:18:39.210Z,14.2
2018-05-11T03:19:40.222Z,14.2
2018-05-11T03:20:41.355Z,14.2
2018-05-11T03:21:42.531Z,14.1
2018-05-11T03:22:43.656Z,14.1
2018-05-11T03:23:44.823Z,14.1
2018-05-11T03:24:45.958Z,14
2018-05-11T03:25:47.091Z,14
2018-05-11T03:26:48.481Z,13.9
2018-05-11T03:27:49.626Z,13.9
2018-05-11T03:28:50.794Z,13.9
2018-05-11T03:29:51.940Z,14.1
2018-05-11T03:30:53.081Z,14
2018-05-11T03:31:54.301Z,13.9
2018-05-11T03:32:55.560Z,14.1
2018-05-11T03:33:56.692Z,14.1
2018-05-11T03:34:57.842Z,14.2
2018-05-11T03:35:59.032Z,13.9
2018-05-11T03:37:05.067Z,14
2018-05-11T03:38:08.020Z,14
2018-05-11T03:39:09.163Z,14
2018-05-11T03:40:10.337Z,14
2018-05-11T03:41:11.488Z,14
2018-05-11T03:42:12.701Z,14
2018-05-11T03:43:13.823Z,14.1
2018-05-11T03:44:14.984Z,14.1
2018-05-11T03:45:16.127Z,14.2
2018-05-11T03:46:20.373Z,14.2
2018-05-11T03:47:22.349Z,14.1
2018-05-11T03:48:23.540Z,14.1
2018-05-11T03:49:24.681Z,14.1
2018-05-11T03:50:25.815Z,14.1
2018-05-11T03:51:26.980Z,14.2
2018-05-11T03:52:28.170Z,14.2
2018-05-11T03:53:29.343Z,14.2
2018-05-11T03:54:30.478Z,14.2
2018-05-11T03:55:31.617Z,14.1
2018-05-11T03:56:37.881Z,14.2
2018-05-11T03:57:39.086Z,14.2
2018-05-11T03:58:40.226Z,14.2
2018-05-11T03:59:41.426Z,14.3
2018-05-11T04:00:42.542Z,14.2
2018-05-11T04:01:43.674Z,14.2
2018-05-11T04:02:44.850Z,14.2
2018-05-11T04:03:45.991Z,14.2
2018-05-11T04:04:47.125Z,14.3
2018-05-11T04:05:48.297Z,14.3
2018-05-11T04:06:49.432Z,14.3
2018-05-11T04:07:50.615Z,14.3
2018-05-11T04:08:51.738Z,14.2
2018-05-11T04:09:52.878Z,14.3
2018-05-11T04:10:54.035Z,14.3
2018-05-11T04:11:55.203Z,14.2
2018-05-11T04:12:56.613Z,14.1
2018-05-11T04:13:57.749Z,14.2
2018-05-11T04:14:58.898Z,14.3
2018-05-11T04:16:00.034Z,14.4
2018-05-11T04:17:01.192Z,14.3
2018-05-11T04:18:02.352Z,14.4
2018-05-11T04:19:03.506Z,14.4
2018-05-11T04:20:04.654Z,14.4
2018-05-11T04:21:05.826Z,14.3
2018-05-11T04:22:06.963Z,14.4
2018-05-11T04:23:08.195Z,14.4
2018-05-11T04:24:09.375Z,14.4
2018-05-11T04:25:10.508Z,14.4
2018-05-11T04:26:11.642Z,14.4
2018-05-11T04:27:12.785Z,14.3
2018-05-11T04:28:14.164Z,14.4
2018-05-11T04:29:15.290Z,14.4
2018-05-11T04:30:16.457Z,14.4
2018-05-11T04:31:17.634Z,14.4
2018-05-11T04:32:18.818Z,14.4
2018-05-11T04:33:19.998Z,14.4
2018-05-11T04:34:21.167Z,14.4
2018-05-11T04:35:22.309Z,14.4
2018-05-11T04:36:23.537Z,14.4
2018-05-11T04:37:24.732Z,14.4
2018-05-11T04:38:25.930Z,14.5
2018-05-11T04:39:27.077Z,14.5
2018-05-11T04:40:28.258Z,14.4
2018-05-11T04:41:29.411Z,14.4
2018-05-11T04:42:30.562Z,14.5
2018-05-11T04:43:31.820Z,14.5
2018-05-11T04:44:32.960Z,14.5
2018-05-11T04:45:34.116Z,14.4
2018-05-11T04:46:35.232Z,14.5
2018-05-11T04:47:36.507Z,14.5
2018-05-11T04:48:38.300Z,14.5
2018-05-11T04:49:39.428Z,14.5
2018-05-11T04:50:40.598Z,14.5
2018-05-11T04:51:41.754Z,14.6
2018-05-11T04:52:42.901Z,14.4
2018-05-11T04:53:47.690Z,14.5
2018-05-11T04:54:48.837Z,14.4
2018-05-11T04:55:49.976Z,14.5
2018-05-11T04:56:51.103Z,14.5
2018-05-11T04:57:52.240Z,14.5
2018-05-11T04:58:53.573Z,14.5
2018-05-11T04:59:54.705Z,14.5
2018-05-11T05:00:55.858Z,14.6
2018-05-11T05:01:57.003Z,14.4
2018-05-11T05:02:58.132Z,14.6
2018-05-11T05:03:59.336Z,14.6
2018-05-11T05:05:00.467Z,14.5
2018-05-11T05:06:02.001Z,14.5
2018-05-11T05:07:07.039Z,14.6
2018-05-11T05:08:08.322Z,14.6
2018-05-11T05:09:09.534Z,14.6
2018-05-11T05:10:10.663Z,14.6
2018-05-11T05:11:11.835Z,14.6
2018-05-11T05:12:12.957Z,14.6
2018-05-11T05:13:14.083Z,14.6
2018-05-11T05:14:15.265Z,14.6
2018-05-11T05:15:16.398Z,14.5
2018-05-11T05:16:17.533Z,14.6
2018-05-11T05:17:18.704Z,14.5
2018-05-11T05:18:19.836Z,14.6
2018-05-11T05:19:21.094Z,14.6
2018-05-11T05:20:22.146Z,14.6
2018-05-11T05:21:24.688Z,14.6
2018-05-11T05:22:25.851Z,14.6
2018-05-11T05:23:27.266Z,14.6
2018-05-11T05:24:28.730Z,14.6
2018-05-11T05:25:29.862Z,14.6
2018-05-11T05:26:31.024Z,14.6
2018-05-11T05:27:32.182Z,14.6
2018-05-11T05:28:33.335Z,14.7
2018-05-11T05:29:34.710Z,14.7
2018-05-11T05:30:35.938Z,14.7
2018-05-11T05:31:37.119Z,14.7
2018-05-11T05:32:38.292Z,14.7
2018-05-11T05:33:39.499Z,14.7
2018-05-11T05:34:40.750Z,14.7
2018-05-11T05:35:41.979Z,14.7
2018-05-11T05:36:43.354Z,14.7
2018-05-11T05:37:45.042Z,14.7
2018-05-11T05:38:47.027Z,14.7
2018-05-11T05:39:48.335Z,14.8
2018-05-11T05:40:49.776Z,14.8
2018-05-11T05:41:51.019Z,14.8
2018-05-11T05:42:52.182Z,14.7
2018-05-11T05:43:53.417Z,14.7
2018-05-11T05:44:54.664Z,14.8
2018-05-11T05:45:55.921Z,14.7
2018-05-11T05:46:57.009Z,14.8
2018-05-11T05:47:58.181Z,14.7
2018-05-11T05:48:59.414Z,14.8
2018-05-11T05:50:00.803Z,14.8
2018-05-11T05:51:05.096Z,14.7
2018-05-11T05:52:06.848Z,14.8
2018-05-11T05:53:07.954Z,14.8
2018-05-11T05:54:09.291Z,14.8
2018-05-11T05:55:10.499Z,14.9
2018-05-11T05:56:14.460Z,15.9
2018-05-11T05:57:15.729Z,16.4
2018-05-11T05:58:16.901Z,16.8
2018-05-11T05:59:18.115Z,17.1
2018-05-11T06:00:20.342Z,17.2
2018-05-11T06:01:21.608Z,17.4
2018-05-11T06:02:22.979Z,17.5
2018-05-11T06:03:24.106Z,17.5
2018-05-11T06:04:25.307Z,17.6
2018-05-11T06:05:26.652Z,17.6
2018-05-11T06:06:27.780Z,17.6
2018-05-11T06:07:29.051Z,17.7
2018-05-11T06:08:30.245Z,17.8
2018-05-11T06:09:31.436Z,17.8
2018-05-11T06:10:32.669Z,17.8
2018-05-11T06:11:33.834Z,17.8
2018-05-11T06:12:35.039Z,17.8
2018-05-11T06:13:36.233Z,17.9
2018-05-11T06:14:37.471Z,18
2018-05-11T06:15:41.108Z,18
2018-05-11T06:16:42.270Z,18
2018-05-11T06:17:43.834Z,18.2
2018-05-11T06:18:44.933Z,18.2
2018-05-11T06:19:46.127Z,18.3
2018-05-11T06:20:47.680Z,18.3
2018-05-11T06:21:49.144Z,18.3
2018-05-11T06:22:50.507Z,18.4
2018-05-11T06:23:51.752Z,18.5
2018-05-11T06:24:53.176Z,18.5
2018-05-11T06:25:54.430Z,18.5
2018-05-11T06:26:55.587Z,18.5
2018-05-11T06:27:56.750Z,18.5
2018-05-11T06:28:57.948Z,18.6
2018-05-11T06:29:59.162Z,18.5
2018-05-11T06:31:00.521Z,18.6
2018-05-11T06:32:03.713Z,18.7
2018-05-11T06:33:04.952Z,18.7
2018-05-11T06:34:06.207Z,18.8
2018-05-11T06:35:07.430Z,18.8
2018-05-11T06:36:08.708Z,18.7
2018-05-11T06:37:10.185Z,18.8
2018-05-11T06:38:11.398Z,18.9
2018-05-11T06:39:12.617Z,18.9
2018-05-11T06:40:13.891Z,18.8
2018-05-11T06:41:15.186Z,19
2018-05-11T06:42:16.348Z,19
2018-05-11T06:43:18.046Z,19
2018-05-11T06:44:24.056Z,19
2018-05-11T06:45:25.323Z,19
2018-05-11T06:46:26.622Z,19.1
2018-05-11T06:47:27.919Z,19.1
2018-05-11T06:48:29.161Z,19.1
2018-05-11T06:49:30.470Z,19.2
2018-05-11T06:50:32.020Z,19.3
2018-05-11T06:51:33.293Z,19.3
2018-05-11T06:52:34.765Z,19.4
2018-05-11T06:53:41.066Z,19.3
2018-05-11T06:54:42.531Z,19.4
2018-05-11T06:55:43.793Z,19.4
2018-05-11T06:56:44.957Z,19.4
2018-05-11T06:57:50.806Z,19.5
2018-05-11T06:58:52.356Z,19.5
2018-05-11T06:59:53.628Z,19.5
2018-05-11T07:00:54.805Z,19.5
2018-05-11T07:01:56.109Z,19.6
2018-05-11T07:02:57.328Z,19.6
2018-05-11T07:03:58.606Z,19.6
2018-05-11T07:05:00.208Z,19.6
2018-05-11T07:06:01.735Z,19.6
2018-05-11T07:07:03.089Z,19.7
2018-05-11T07:08:04.414Z,19.7
2018-05-11T07:09:05.732Z,19.6
2018-05-11T07:10:07.094Z,19.7
2018-05-11T07:11:08.639Z,19.6
2018-05-11T07:12:11.535Z,19.8
2018-05-11T07:13:12.778Z,19.8
2018-05-11T07:14:13.986Z,19.8
2018-05-11T07:15:15.190Z,19.8
2018-05-11T07:16:22.422Z,20
2018-05-11T07:17:23.771Z,20
2018-05-11T07:18:24.989Z,20
2018-05-11T07:19:26.352Z,20
2018-05-11T07:20:27.644Z,19.9
2018-05-11T07:21:28.965Z,20
2018-05-11T07:22:30.396Z,20
2018-05-11T07:23:31.830Z,20.1
2018-05-11T07:24:33.415Z,20.1
2018-05-11T07:25:37.142Z,20.1
2018-05-11T07:26:41.517Z,20.1
2018-05-11T07:27:45.388Z,20.2
2018-05-11T07:28:47.260Z,20.2
2018-05-11T07:29:49.414Z,20.3
2018-05-11T07:30:51.314Z,20.2
2018-05-11T07:31:54.653Z,20.3
2018-05-11T07:33:17.218Z,20.3
2018-05-11T07:34:18.663Z,20.3
2018-05-11T07:35:20.816Z,20.3
2018-05-11T07:36:22.082Z,20.3
2018-05-11T07:37:23.417Z,20.4
2018-05-11T07:38:24.793Z,20.4
2018-05-11T07:39:29.348Z,20.4
2018-05-11T07:40:30.586Z,20.5
2018-05-11T07:41:31.836Z,20.5
2018-05-11T07:42:36.212Z,20.5
2018-05-11T07:45:00.126Z,20.6
2018-05-11T07:46:01.522Z,20.6
2018-05-11T07:47:02.847Z,20.7
2018-05-11T07:48:04.074Z,20.7
2018-05-11T07:49:06.641Z,20.6
2018-05-11T07:50:13.539Z,20.7
2018-05-11T07:51:14.871Z,20.7
2018-05-11T07:52:24.049Z,20.8
2018-05-11T07:53:25.357Z,20.8
2018-05-11T07:54:29.806Z,20.8
2018-05-11T07:55:31.104Z,20.8
2018-05-11T07:56:32.333Z,20.9
2018-05-11T07:57:33.679Z,20.9
2018-05-11T07:58:35.049Z,20.9
2018-05-11T07:59:40.275Z,20.9
2018-05-11T08:00:41.584Z,21
2018-05-11T08:01:43.145Z,21
2018-05-11T08:02:44.414Z,21
2018-05-11T08:03:45.684Z,21
2018-05-11T08:04:46.990Z,21
2018-05-11T08:05:52.660Z,21
2018-05-11T08:06:53.951Z,21
2018-05-11T08:07:55.301Z,20.9
2018-05-11T08:08:56.715Z,21.1
2018-05-11T08:10:03.801Z,21.1
2018-05-11T08:11:07.160Z,21.1
2018-05-11T08:12:11.343Z,21.1
2018-05-11T08:13:13.060Z,21.1
2018-05-11T08:14:15.262Z,21.2
2018-05-11T08:15:16.466Z,21.2
2018-05-11T08:16:17.749Z,21.2
2018-05-11T08:17:21.084Z,21.2
2018-05-11T08:18:25.070Z,21.3
2018-05-11T08:19:29.071Z,21.3
2018-05-11T08:20:30.442Z,21.3
2018-05-11T08:21:31.717Z,21.3
2018-05-11T08:22:33.010Z,21.4
2018-05-11T08:23:34.248Z,21.4
2018-05-11T08:24:35.544Z,21.5
2018-05-11T08:25:36.858Z,21.5
2018-05-11T08:26:38.240Z,21.5
2018-05-11T08:27:47.642Z,21.4
2018-05-11T08:28:48.935Z,21.5
2018-05-11T08:29:59.413Z,21.5
2018-05-11T08:31:04.478Z,21.6
2018-05-11T08:32:06.261Z,21.6
2018-05-11T08:33:08.147Z,21.6
2018-05-11T08:34:10.370Z,21.6
2018-05-11T08:35:11.664Z,21.6
2018-05-11T08:36:13.199Z,21.6
2018-05-11T08:37:15.011Z,21.7
2018-05-11T08:38:19.404Z,21.6
2018-05-11T08:39:20.732Z,21.7
2018-05-11T08:40:22.650Z,21.7
2018-05-11T08:41:36.588Z,21.7
2018-05-11T08:42:40.490Z,21.6
2018-05-11T08:43:46.402Z,21.7
2018-05-11T08:45:16.403Z,21.8
2018-05-11T08:46:36.980Z,21.8
2018-05-11T08:47:45.792Z,21.8
2018-05-11T08:48:51.126Z,21.8
2018-05-11T08:49:54.131Z,21.8
2018-05-11T08:50:56.952Z,21.8
2018-05-11T08:52:02.992Z,21.9
2018-05-11T08:53:04.780Z,21.9
2018-05-11T08:54:06.833Z,21.9
2018-05-11T08:55:12.449Z,21.9
2018-05-11T08:56:13.671Z,21.9
2018-05-11T08:57:16.741Z,22
2018-05-11T08:58:18.648Z,21.9
2018-05-11T09:00:52.368Z,22
2018-05-11T09:02:08.537Z,21.9
2018-05-11T09:03:09.909Z,22
2018-05-11T09:04:11.763Z,22
2018-05-11T09:05:13.054Z,22
2018-05-11T09:06:15.457Z,22
2018-05-11T09:07:18.310Z,22
2018-05-11T09:08:20.006Z,22.1
2018-05-11T09:09:21.125Z,22
2018-05-11T09:10:22.317Z,22.1
2018-05-11T09:11:23.668Z,22.1
2018-05-11T09:12:29.088Z,22.1
2018-05-11T09:13:30.486Z,22
2018-05-11T09:14:33.011Z,22.1
2018-05-11T09:15:34.190Z,22.1
2018-05-11T09:16:36.082Z,22.1
2018-05-11T09:17:38.332Z,22
2018-05-11T09:18:46.507Z,22.1
2018-05-11T09:19:48.458Z,22.1
2018-05-11T09:20:50.673Z,22.1
2018-05-11T09:21:53.697Z,22
2018-05-11T09:22:56.197Z,22.1
2018-05-11T09:23:57.827Z,22.1
2018-05-11T09:25:00.792Z,22
2018-05-11T09:26:02.017Z,22.1
2018-05-11T09:27:06.819Z,22.1
2018-05-11T09:28:10.951Z,22.2
2018-05-11T09:29:13.608Z,22.2
2018-05-11T09:30:14.785Z,22.2
2018-05-11T09:31:16.008Z,22.2
2018-05-11T09:32:18.061Z,22.2
2018-05-11T09:33:27.253Z,22.2
2018-05-11T09:34:28.559Z,22.2
2018-05-11T09:35:30.812Z,22.2
2018-05-11T09:36:32.484Z,22.3
2018-05-11T09:37:33.979Z,22.3
2018-05-11T09:38:35.342Z,22.3
2018-05-11T09:39:36.597Z,22.3
2018-05-11T09:40:37.938Z,22.3
2018-05-11T09:41:40.642Z,22.3
2018-05-11T09:42:45.357Z,22.4
2018-05-11T09:43:47.588Z,22.4
2018-05-11T09:44:49.025Z,22.4
2018-05-11T09:45:52.060Z,22.4
2018-05-11T09:48:25.384Z,22.4
2018-05-11T09:51:48.860Z,22.3
2018-05-11T09:52:50.974Z,22.5
2018-05-11T09:53:53.791Z,22.5
2018-05-11T09:54:55.535Z,22.5
2018-05-11T09:56:01.156Z,22.6
2018-05-11T09:57:02.816Z,22.5
2018-05-11T09:58:07.174Z,22.6
2018-05-11T09:59:08.976Z,22.6
2018-05-11T10:00:11.387Z,22.6
2018-05-11T10:01:14.010Z,22.6
2018-05-11T10:02:17.254Z,22.6
2018-05-11T10:03:18.705Z,22.6
2018-05-11T10:04:20.396Z,22.6
2018-05-11T10:05:21.821Z,22.7
2018-05-11T10:06:23.148Z,22.7
2018-05-11T10:07:24.930Z,22.6
2018-05-11T10:08:26.487Z,22.7
2018-05-11T10:09:27.765Z,22.7
2018-05-11T10:10:28.944Z,22.7
2018-05-11T10:11:30.409Z,22.7
2018-05-11T10:12:31.787Z,22.7
2018-05-11T10:13:33.070Z,22.8
2018-05-11T10:14:34.294Z,22.8
2018-05-11T10:15:35.560Z,22.8
2018-05-11T10:16:37.659Z,22.8
2018-05-11T10:17:44.347Z,22.8
2018-05-11T10:18:45.745Z,22.8
2018-05-11T10:19:47.309Z,22.7
2018-05-11T10:20:48.643Z,22.9
2018-05-11T10:21:49.921Z,22.9
2018-05-11T10:22:55.679Z,22.9
2018-05-11T10:23:56.926Z,22.9
2018-05-11T10:24:58.135Z,22.9
2018-05-11T10:26:00.492Z,23
2018-05-11T10:27:01.819Z,23
2018-05-11T10:28:03.998Z,23
2018-05-11T10:29:05.888Z,23
2018-05-11T10:30:07.155Z,23
2018-05-11T10:31:08.367Z,23.1
2018-05-11T10:32:09.712Z,23
2018-05-11T10:33:11.144Z,23.1
2018-05-11T10:34:12.434Z,23
2018-05-11T10:35:13.799Z,23.1
2018-05-11T10:36:19.749Z,23.1
2018-05-11T10:37:21.413Z,23.1
2018-05-11T10:38:24.446Z,23.2
2018-05-11T10:39:25.843Z,23.2
2018-05-11T10:40:27.364Z,23.2
2018-05-11T10:41:28.680Z,23.2
2018-05-11T10:42:30.042Z,23.3
2018-05-11T10:43:31.342Z,23.3
2018-05-11T10:44:32.538Z,23.3
2018-05-11T10:45:33.919Z,23.4
2018-05-11T10:46:35.371Z,23.4
2018-05-11T10:47:36.652Z,23.4
2018-05-11T10:48:38.018Z,23.4
2018-05-11T10:49:39.158Z,23.3
2018-05-11T10:50:40.623Z,23.4
2018-05-11T10:51:42.034Z,23.4
2018-05-11T10:52:43.252Z,23.5
2018-05-11T10:53:44.511Z,23.5
2018-05-11T10:54:46.105Z,23.3
2018-05-11T10:55:48.802Z,23.5
2018-05-11T10:56:50.087Z,23.5
2018-05-11T10:57:51.583Z,23.7
2018-05-11T10:58:52.815Z,23.9
2018-05-11T10:59:54.022Z,23.9
2018-05-11T11:00:55.259Z,23.8
2018-05-11T11:01:56.505Z,23.9
2018-05-11T11:02:57.806Z,24
2018-05-11T11:03:59.087Z,23.9
2018-05-11T11:05:00.373Z,23.8
2018-05-11T11:06:01.628Z,23.9
2018-05-11T11:07:02.822Z,24
2018-05-11T11:08:04.026Z,24
2018-05-11T11:09:05.238Z,24
2018-05-11T11:10:06.405Z,24
2018-05-11T11:11:07.715Z,24.1
2018-05-11T11:12:09.734Z,24.1
2018-05-11T11:13:13.624Z,24
2018-05-11T11:14:16.318Z,23.8
2018-05-11T11:15:19.003Z,23.8
2018-05-11T11:16:20.644Z,23.8
2018-05-11T11:17:21.920Z,23.8
2018-05-11T11:18:23.205Z,23.9
2018-05-11T11:19:24.578Z,23.9
2018-05-11T11:20:25.960Z,23.9
2018-05-11T11:21:27.440Z,23.9
2018-05-11T11:22:28.839Z,24
2018-05-11T11:23:30.329Z,24
2018-05-11T11:24:31.905Z,24
2018-05-11T11:25:33.404Z,23.9
2018-05-11T11:26:34.932Z,23.9
2018-05-11T11:27:37.576Z,23.9
2018-05-11T11:28:38.942Z,23.9
2018-05-11T11:29:40.357Z,24
2018-05-11T11:30:41.804Z,24.1
2018-05-11T11:31:43.014Z,24.1
2018-05-11T11:32:44.310Z,24.1
2018-05-11T11:33:45.729Z,24
2018-05-11T11:34:47.628Z,24.2
2018-05-11T11:35:48.753Z,24.1
2018-05-11T11:36:50.006Z,24
2018-05-11T11:37:51.324Z,24.1
2018-05-11T11:38:52.727Z,24.1
2018-05-11T11:39:54.066Z,24.1
2018-05-11T11:40:55.441Z,24.1
2018-05-11T11:41:56.699Z,24
2018-05-11T11:42:57.972Z,24
2018-05-11T11:43:59.256Z,24.1
2018-05-11T11:45:00.584Z,24.1
2018-05-11T11:46:02.163Z,24.2
2018-05-11T11:47:03.609Z,24.1
2018-05-11T11:48:04.875Z,24.1
2018-05-11T11:49:06.106Z,24.1
2018-05-11T11:50:07.717Z,24
2018-05-11T11:51:09.248Z,24.1
2018-05-11T11:52:10.627Z,24.1
2018-05-11T11:53:17.309Z,24.3
2018-05-11T11:54:18.721Z,24.3
2018-05-11T11:55:20.342Z,24.3
2018-05-11T11:57:23.468Z,24.3
2018-05-11T11:58:24.744Z,24.3
2018-05-11T11:59:26.029Z,24.3
2018-05-11T12:00:27.580Z,24.3
2018-05-11T12:01:29.008Z,24.3
2018-05-11T12:02:30.375Z,24.2
2018-05-11T12:03:31.774Z,24.2
2018-05-11T12:04:32.944Z,24.2
2018-05-11T12:05:34.291Z,24.4
2018-05-11T12:06:35.529Z,24.4
2018-05-11T12:07:38.076Z,24.3
2018-05-11T12:08:39.465Z,24.3
2018-05-11T12:09:40.706Z,24.4
2018-05-11T12:10:42.029Z,24.4
2018-05-11T12:11:43.374Z,24.4
2018-05-11T12:12:44.638Z,24.4
2018-05-11T12:13:45.938Z,24.4
2018-05-11T12:14:47.113Z,24.5
2018-05-11T12:15:48.628Z,24.4
2018-05-11T12:16:49.734Z,24.5
2018-05-11T12:17:50.941Z,24.6
2018-05-11T12:18:52.253Z,24.5
2018-05-11T12:19:53.470Z,24.6
2018-05-11T12:20:54.788Z,24.5
2018-05-11T12:21:56.206Z,24.7
2018-05-11T12:22:57.499Z,24.6
2018-05-11T12:23:58.637Z,24.6
2018-05-11T12:25:00.085Z,24.5
2018-05-11T12:26:03.260Z,24.4
2018-05-11T12:27:05.512Z,24.4
2018-05-11T12:28:07.759Z,24.3
2018-05-11T12:29:09.723Z,24.4
2018-05-11T12:30:10.968Z,24.5
2018-05-11T12:31:12.303Z,24.4
2018-05-11T12:32:13.525Z,24.4
2018-05-11T12:33:15.819Z,24.6
2018-05-11T12:34:17.287Z,24.5
2018-05-11T12:35:18.633Z,24.5
2018-05-11T12:36:20.101Z,24.5
2018-05-11T12:37:21.561Z,24.5
2018-05-11T12:38:28.057Z,24.5
2018-05-11T12:39:42.265Z,24.5
2018-05-11T12:40:43.566Z,24.4
2018-05-11T12:41:44.827Z,24.5
2018-05-11T12:42:46.187Z,24.4
2018-05-11T12:43:47.595Z,24.5
2018-05-11T12:44:48.789Z,24.5
2018-05-11T12:45:50.033Z,24.5
2018-05-11T12:46:51.607Z,24.5
2018-05-11T12:47:52.978Z,24.6
2018-05-11T12:48:54.274Z,24.6
2018-05-11T12:49:55.444Z,24.6
2018-05-11T12:50:56.594Z,24.5
2018-05-11T12:51:57.847Z,24.5
2018-05-11T12:52:59.175Z,24.4
2018-05-11T12:54:00.698Z,24.6
2018-05-11T12:55:02.212Z,24.6
2018-05-11T12:56:03.573Z,24.6
2018-05-11T12:57:05.046Z,24.6
2018-05-11T12:58:07.137Z,24.5
2018-05-11T12:59:08.715Z,24.6
2018-05-11T13:00:10.400Z,24.8
2018-05-11T13:01:11.882Z,24.8
2018-05-11T13:02:13.510Z,24.8
2018-05-11T13:03:14.749Z,24.6
2018-05-11T13:04:15.982Z,24.7
2018-05-11T13:05:17.191Z,24.7
2018-05-11T13:06:18.363Z,24.8
2018-05-11T13:07:19.603Z,24.8
2018-05-11T13:08:20.797Z,24.7
2018-05-11T13:09:22.151Z,24.7
2018-05-11T13:10:23.357Z,24.8
2018-05-11T13:11:24.470Z,24.9
2018-05-11T13:12:27.007Z,24.7
2018-05-11T13:13:28.235Z,24.8
2018-05-11T13:14:32.610Z,24.8
2018-05-11T13:15:34.140Z,24.8
2018-05-11T13:16:35.441Z,24.8
2018-05-11T13:17:37.172Z,24.8
2018-05-11T13:18:38.500Z,24.9
2018-05-11T13:19:39.896Z,25
2018-05-11T13:20:41.476Z,25.1
2018-05-11T13:21:42.844Z,25
2018-05-11T13:22:44.181Z,25
2018-05-11T13:23:45.453Z,24.9
2018-05-11T13:24:46.726Z,24.9
2018-05-11T13:25:47.917Z,24.8
2018-05-11T13:26:49.354Z,24.8
2018-05-11T13:27:50.697Z,24.8
2018-05-11T13:28:51.914Z,24.8
2018-05-11T13:29:56.181Z,24.8
2018-05-11T13:30:57.362Z,25
2018-05-11T13:31:58.563Z,25
2018-05-11T13:33:00.342Z,24.9
2018-05-11T13:34:02.050Z,24.9
2018-05-11T13:35:03.237Z,25
2018-05-11T13:36:04.499Z,25
2018-05-11T13:37:05.796Z,24.9
2018-05-11T13:38:12.643Z,25
2018-05-11T13:39:14.125Z,25
2018-05-11T13:40:15.463Z,25
2018-05-11T13:41:24.275Z,25
2018-05-11T13:42:25.895Z,25
2018-05-11T13:43:27.673Z,24.9
2018-05-11T13:44:29.009Z,25
2018-05-11T13:45:30.329Z,25
2018-05-11T13:46:31.522Z,25
2018-05-11T13:47:32.974Z,25.1
2018-05-11T13:48:34.526Z,25.2
2018-05-11T13:49:38.068Z,25.1
2018-05-11T13:50:39.510Z,25.2
2018-05-11T13:51:40.850Z,25.3
2018-05-11T13:52:43.285Z,25.3
2018-05-11T13:53:44.691Z,25.3
2018-05-11T13:54:45.918Z,25.2
2018-05-11T13:55:47.241Z,25.1
2018-05-11T13:56:50.847Z,25.2